Bullfrog, Utah
Current Conditions -  °F | °C
As of 8:55 AM on Friday 21 Nov 2014 (Local Time) from KBDG Reporting Station
Clear Clear  
Wind Chill: 37°   Ceiling: Unl
Heat Index: 40°   Visibility: 10mi
Dew Point: 16°   Wind: 5mph
Humidity: 37%   Direction: 50°NE
Pressure: 30.15"   Gusts: NA
Location:  37.6208°N, 109.479°W
Report Text: KBDG 211555Z AUTO 05004KT 10SM CLR 05/M09 A3015 RMK AO1 T00461090
Loading
Personal Weather Stations






























Interactive Weather Map New forecast layout! Learn more

10-Day Weather Forecast

Advertisements
Track Severe Weather on mobile